createdAt,value
2017-10-17T00:02:03.325Z,87.80
2017-10-17T00:04:29.801Z,87.70
2017-10-17T00:06:57.007Z,87.70
2017-10-17T00:09:23.492Z,87.70
2017-10-17T00:11:50.696Z,87.80
2017-10-17T00:14:17.197Z,87.70
2017-10-17T00:16:43.632Z,87.60
2017-10-17T00:19:10.089Z,87.60
2017-10-17T00:21:36.525Z,87.80
2017-10-17T00:24:03.012Z,87.70
2017-10-17T00:26:30.201Z,87.60
2017-10-17T00:28:56.669Z,87.50
2017-10-17T00:31:23.149Z,87.60
2017-10-17T00:33:49.637Z,87.50
2017-10-17T00:36:17.069Z,87.90
2017-10-17T00:38:43.483Z,87.70
2017-10-17T00:41:09.944Z,87.60
2017-10-17T00:43:36.392Z,87.30
2017-10-17T00:46:03.672Z,87.10
2017-10-17T00:48:30.956Z,87.30
2017-10-17T00:50:58.377Z,87.30
2017-10-17T00:53:25.544Z,87.50
2017-10-17T00:55:52.807Z,87.10
2017-10-17T00:58:19.244Z,87.00
2017-10-17T01:00:45.680Z,87.50
2017-10-17T01:03:12.179Z,87.20
2017-10-17T01:05:38.745Z,87.10
2017-10-17T01:08:05.196Z,87.30
2017-10-17T01:10:31.687Z,87.30
2017-10-17T01:12:58.120Z,87.30
2017-10-17T01:15:24.660Z,87.70
2017-10-17T01:17:51.867Z,87.80
2017-10-17T01:20:19.185Z,87.80
2017-10-17T01:22:45.643Z,87.30
2017-10-17T01:25:12.149Z,86.80
2017-10-17T01:27:39.351Z,87.00
2017-10-17T01:30:05.797Z,87.80
2017-10-17T01:32:32.266Z,87.30
2017-10-17T01:34:59.492Z,87.40
2017-10-17T01:37:25.931Z,87.40
2017-10-17T01:40:00.980Z,87.60
2017-10-17T01:42:29.186Z,87.20
2017-10-17T01:44:57.364Z,87.20
2017-10-17T01:47:26.800Z,86.90
2017-10-17T01:49:53.272Z,86.50
2017-10-17T01:52:21.669Z,86.30
2017-10-17T01:54:54.044Z,86.40
2017-10-17T01:57:20.629Z,86.70
2017-10-17T02:00:03.979Z,86.40
2017-10-17T02:02:31.183Z,87.30
2017-10-17T02:05:00.576Z,87.30
2017-10-17T02:07:27.056Z,87.40
2017-10-17T02:09:55.119Z,86.60
2017-10-17T02:12:21.559Z,86.30
2017-10-17T02:14:48.824Z,87.00
2017-10-17T02:17:16.016Z,86.40
2017-10-17T02:19:42.486Z,86.40
2017-10-17T02:22:11.882Z,86.20
2017-10-17T02:24:40.256Z,86.20
2017-10-17T02:27:06.822Z,85.70
2017-10-17T02:29:35.834Z,86.10
2017-10-17T02:32:03.150Z,86.30
2017-10-17T02:34:31.075Z,86.30
2017-10-17T02:36:57.524Z,86.50
2017-10-17T02:39:24.017Z,86.30
2017-10-17T02:41:50.452Z,86.70
2017-10-17T02:44:16.979Z,86.60
2017-10-17T02:46:44.411Z,86.60
2017-10-17T02:49:10.889Z,86.40
2017-10-17T02:51:37.340Z,86.60
2017-10-17T02:54:03.851Z,86.30
2017-10-17T02:56:30.278Z,85.90
2017-10-17T02:58:56.780Z,86.10
2017-10-17T03:01:34.157Z,86.10
2017-10-17T03:04:00.642Z,86.00
2017-10-17T03:06:27.137Z,86.40
2017-10-17T03:08:53.587Z,86.60
2017-10-17T03:11:20.871Z,86.20
2017-10-17T03:13:49.433Z,86.20
2017-10-17T03:16:16.211Z,86.70
2017-10-17T03:18:42.677Z,87.00
2017-10-17T03:21:19.992Z,86.70
2017-10-17T03:23:48.176Z,86.10
2017-10-17T03:26:14.626Z,86.10
2017-10-17T03:28:41.977Z,85.70
2017-10-17T03:31:12.331Z,85.60
2017-10-17T03:33:38.815Z,86.30
2017-10-17T03:39:11.739Z,86.10
2017-10-17T03:41:38.876Z,86.10
2017-10-17T03:47:03.484Z,86.00
2017-10-17T03:52:33.751Z,85.70
2017-10-17T03:55:00.327Z,85.00
2017-10-17T03:57:26.784Z,86.30
2017-10-17T03:59:55.365Z,86.20
2017-10-17T04:02:21.852Z,86.00
2017-10-17T04:04:49.235Z,85.70
2017-10-17T04:07:22.771Z,85.80
2017-10-17T04:10:01.240Z,85.50
2017-10-17T04:12:29.015Z,85.60
2017-10-17T04:14:55.468Z,85.10
2017-10-17T04:17:51.832Z,84.90
2017-10-17T04:20:30.044Z,83.30
2017-10-17T04:23:12.341Z,86.00
2017-10-17T04:25:41.477Z,86.50
2017-10-17T04:28:25.676Z,88.00
2017-10-17T04:30:57.576Z,87.40
2017-10-17T04:33:35.028Z,87.30
2017-10-17T04:36:12.112Z,86.70
2017-10-17T04:38:39.295Z,86.50
2017-10-17T04:41:09.681Z,86.40
2017-10-17T04:46:41.096Z,85.00
2017-10-17T04:49:09.336Z,85.60
2017-10-17T04:51:43.328Z,85.30
2017-10-17T04:54:33.532Z,85.70
2017-10-17T04:57:00.828Z,85.10
2017-10-17T05:02:26.326Z,85.00
2017-10-17T05:04:55.672Z,84.60
2017-10-17T05:07:23.160Z,85.20
2017-10-17T05:09:51.519Z,85.20
2017-10-17T05:12:18.872Z,85.80
2017-10-17T05:14:45.341Z,85.50
2017-10-17T05:17:34.380Z,85.40
2017-10-17T05:20:20.184Z,85.20
2017-10-17T05:22:59.336Z,85.20
2017-10-17T05:25:29.510Z,85.20
2017-10-17T05:28:03.890Z,85.00
2017-10-17T05:30:31.171Z,85.10
2017-10-17T05:35:56.629Z,84.70
2017-10-17T05:38:23.072Z,85.30
2017-10-17T05:40:50.376Z,85.10
2017-10-17T05:46:07.176Z,84.80
2017-10-17T05:48:33.645Z,84.50
2017-10-17T05:51:01.046Z,85.00
2017-10-17T05:53:28.277Z,85.50
2017-10-17T05:55:54.705Z,85.40
2017-10-17T05:58:21.179Z,85.70
2017-10-17T06:00:47.635Z,84.90
2017-10-17T06:03:14.065Z,85.00
2017-10-17T06:05:40.527Z,85.30
2017-10-17T06:08:06.980Z,85.80
2017-10-17T06:10:33.392Z,85.70
2017-10-17T06:13:00.565Z,86.00
2017-10-17T06:15:27.714Z,86.40
2017-10-17T06:17:54.110Z,86.20
2017-10-17T06:20:20.567Z,86.20
2017-10-17T06:22:47.005Z,86.00
2017-10-17T06:25:13.457Z,86.20
2017-10-17T06:27:40.628Z,86.80
2017-10-17T06:30:07.044Z,86.80
2017-10-17T06:32:34.184Z,86.30
2017-10-17T06:35:00.628Z,86.10
2017-10-17T06:37:27.784Z,86.70
2017-10-17T06:39:54.224Z,86.60
2017-10-17T06:42:20.800Z,86.80
2017-10-17T06:44:48.074Z,87.30
2017-10-17T06:47:14.536Z,87.30
2017-10-17T06:49:41.750Z,87.20
2017-10-17T06:52:08.945Z,87.20
2017-10-17T06:54:36.157Z,87.10
2017-10-17T06:57:02.634Z,87.00
2017-10-17T06:59:29.064Z,87.10
2017-10-17T07:01:56.246Z,87.60
2017-10-17T07:04:23.648Z,87.60
2017-10-17T07:06:50.137Z,87.60
2017-10-17T07:09:16.664Z,87.90
2017-10-17T07:11:43.138Z,87.70
2017-10-17T07:14:09.574Z,88.10
2017-10-17T07:16:36.049Z,88.20
2017-10-17T07:19:02.495Z,88.20
2017-10-17T07:21:45.720Z,88.10
2017-10-17T07:24:12.420Z,88.20
2017-10-17T07:26:49.362Z,88.10
2017-10-17T07:29:26.786Z,88.30
2017-10-17T07:31:53.985Z,88.20
2017-10-17T07:34:21.626Z,87.60
2017-10-17T07:36:48.193Z,86.90
2017-10-17T07:39:14.649Z,87.10
2017-10-17T07:41:41.417Z,86.40
2017-10-17T07:44:08.768Z,85.50
2017-10-17T07:46:36.508Z,85.40
2017-10-17T07:49:04.660Z,84.80
2017-10-17T07:51:31.265Z,84.70
2017-10-17T07:53:58.739Z,84.70
2017-10-17T07:56:25.469Z,84.50
2017-10-17T07:58:52.785Z,84.60
2017-10-17T08:01:20.252Z,84.50
2017-10-17T08:03:47.604Z,84.90
2017-10-17T08:06:16.642Z,84.80
2017-10-17T08:08:44.242Z,85.00
2017-10-17T08:11:11.637Z,85.10
2017-10-17T08:13:38.846Z,84.20
2017-10-17T08:16:05.296Z,84.20
2017-10-17T08:18:32.503Z,83.40
2017-10-17T08:20:58.902Z,83.40
2017-10-17T08:23:26.023Z,82.30
2017-10-17T08:25:52.508Z,82.30
2017-10-17T08:28:18.969Z,82.90
2017-10-17T08:30:46.165Z,82.10
2017-10-17T08:33:13.300Z,82.60
2017-10-17T08:35:39.733Z,82.50
2017-10-17T08:38:06.196Z,82.00
2017-10-17T08:40:32.651Z,81.90
2017-10-17T08:42:59.504Z,81.00
2017-10-17T08:45:26.807Z,81.40
2017-10-17T08:47:54.065Z,81.00
2017-10-17T08:50:21.248Z,80.20
2017-10-17T08:52:47.731Z,80.00
2017-10-17T08:55:14.941Z,79.90
2017-10-17T08:57:41.408Z,79.90
2017-10-17T09:00:07.822Z,80.30
2017-10-17T09:02:34.269Z,80.20
2017-10-17T09:05:00.701Z,80.20
2017-10-17T09:07:27.124Z,79.70
2017-10-17T09:09:54.287Z,80.50
2017-10-17T09:12:20.719Z,80.40
2017-10-17T09:14:47.360Z,80.90
2017-10-17T09:17:13.779Z,78.80
2017-10-17T09:19:40.232Z,79.60
2017-10-17T09:22:07.445Z,78.10
2017-10-17T09:24:33.844Z,78.10
2017-10-17T09:27:00.988Z,77.90
2017-10-17T09:29:28.149Z,77.90
2017-10-17T09:31:56.180Z,78.10
2017-10-17T09:34:23.203Z,78.10
2017-10-17T09:36:50.687Z,81.60
2017-10-17T09:39:21.363Z,81.50
2017-10-17T09:41:48.789Z,81.50
2017-10-17T09:44:15.241Z,77.30
2017-10-17T09:46:42.038Z,77.90
2017-10-17T09:49:10.093Z,77.20
2017-10-17T09:51:37.661Z,77.90
2017-10-17T09:54:09.617Z,74.90
2017-10-17T09:59:11.569Z,67.80
2017-10-17T10:01:39.490Z,67.70
2017-10-17T10:04:09.672Z,66.60
2017-10-17T10:06:39.080Z,65.00
2017-10-17T10:09:06.603Z,65.40
2017-10-17T10:11:36.045Z,65.70
2017-10-17T10:14:02.485Z,65.30
2017-10-17T10:16:30.199Z,66.20
2017-10-17T10:18:57.708Z,65.30
2017-10-17T10:21:25.192Z,67.00
2017-10-17T10:23:51.721Z,66.90
2017-10-17T10:26:18.208Z,66.20
2017-10-17T10:28:44.779Z,66.60
2017-10-17T10:31:12.365Z,65.50
2017-10-17T10:33:38.920Z,66.10
2017-10-17T10:36:05.468Z,63.80
2017-10-17T10:38:32.733Z,65.10
2017-10-17T10:41:00.423Z,65.10
2017-10-17T10:43:27.011Z,63.20
2017-10-17T10:45:53.721Z,64.90
2017-10-17T10:48:20.321Z,64.50
2017-10-17T10:50:46.941Z,64.60
2017-10-17T10:53:13.696Z,65.10
2017-10-17T10:55:41.100Z,65.80
2017-10-17T10:58:07.671Z,64.80
2017-10-17T11:00:34.262Z,63.10
2017-10-17T11:03:01.035Z,62.80
2017-10-17T11:05:27.605Z,63.70
2017-10-17T11:07:54.020Z,63.50
2017-10-17T11:10:20.815Z,63.60
2017-10-17T11:12:47.345Z,61.80
2017-10-17T11:15:14.006Z,61.40
2017-10-17T11:17:41.245Z,62.30
2017-10-17T11:20:07.821Z,62.30
2017-10-17T11:22:34.417Z,59.40
2017-10-17T11:25:01.054Z,58.70
2017-10-17T11:27:27.634Z,58.70
2017-10-17T11:29:54.333Z,59.00
2017-10-17T11:32:20.810Z,61.80
2017-10-17T11:34:47.597Z,59.90
2017-10-17T11:37:14.281Z,58.90
2017-10-17T11:39:40.788Z,56.80
2017-10-17T11:42:19.694Z,57.00
2017-10-17T11:44:46.276Z,55.90
2017-10-17T11:47:14.306Z,56.40
2017-10-17T11:49:40.904Z,56.40
2017-10-17T11:52:07.437Z,55.70
2017-10-17T11:54:33.892Z,56.70
2017-10-17T11:57:00.316Z,56.30
2017-10-17T11:59:26.765Z,55.20
2017-10-17T12:01:53.221Z,54.60
2017-10-17T12:04:19.699Z,54.40
2017-10-17T12:06:46.220Z,55.10
2017-10-17T12:09:12.654Z,54.20
2017-10-17T12:11:39.121Z,54.20
2017-10-17T12:14:05.585Z,56.50
2017-10-17T12:16:32.032Z,54.60
2017-10-17T12:18:59.164Z,54.70
2017-10-17T12:21:25.593Z,54.70
2017-10-17T12:23:52.103Z,53.30
2017-10-17T12:26:18.524Z,53.70
2017-10-17T12:28:44.998Z,53.40
2017-10-17T12:31:11.466Z,53.00
2017-10-17T12:33:37.944Z,54.00
2017-10-17T12:36:04.352Z,53.00
2017-10-17T12:38:30.793Z,52.30
2017-10-17T12:40:57.215Z,52.40
2017-10-17T12:43:23.620Z,53.90
2017-10-17T12:45:50.811Z,51.60
2017-10-17T12:48:17.253Z,51.70
2017-10-17T12:50:43.651Z,50.90
2017-10-17T12:53:10.852Z,51.00
2017-10-17T12:55:37.316Z,51.00
2017-10-17T12:58:04.534Z,50.00
2017-10-17T13:00:31.012Z,49.90
2017-10-17T13:02:58.148Z,50.50
2017-10-17T13:05:25.364Z,50.50
2017-10-17T13:07:51.821Z,50.50
2017-10-17T13:10:18.264Z,50.80
2017-10-17T13:12:44.736Z,50.40
2017-10-17T13:15:11.192Z,50.70
2017-10-17T13:17:37.676Z,51.50
2017-10-17T13:20:04.868Z,49.70
2017-10-17T13:22:31.344Z,49.70
2017-10-17T13:24:57.832Z,49.40
2017-10-17T13:27:24.272Z,50.80
2017-10-17T13:29:50.709Z,49.90
2017-10-17T13:32:17.165Z,50.20
2017-10-17T13:34:44.340Z,50.70
2017-10-17T13:37:11.529Z,50.80
2017-10-17T13:39:37.980Z,50.70
2017-10-17T13:42:04.433Z,50.90
2017-10-17T13:44:31.582Z,51.70
2017-10-17T13:46:58.045Z,51.70
2017-10-17T13:49:25.197Z,52.00
2017-10-17T13:51:52.356Z,52.20
2017-10-17T13:54:19.529Z,52.20
2017-10-17T13:56:45.971Z,52.20
2017-10-17T13:59:12.375Z,52.50
2017-10-17T14:01:38.799Z,53.10
2017-10-17T14:04:05.993Z,53.90
2017-10-17T14:06:32.468Z,53.90
2017-10-17T14:08:58.892Z,52.80
2017-10-17T14:11:26.116Z,52.60
2017-10-17T14:13:52.640Z,52.50
2017-10-17T14:16:19.095Z,53.60
2017-10-17T14:18:45.560Z,53.40
2017-10-17T14:21:11.993Z,53.40
2017-10-17T14:23:38.415Z,53.40
2017-10-17T14:26:04.861Z,54.70
2017-10-17T14:28:32.060Z,54.70
2017-10-17T14:30:58.488Z,54.40
2017-10-17T14:33:24.909Z,55.30
2017-10-17T14:35:51.345Z,55.90
2017-10-17T14:38:17.787Z,54.80
2017-10-17T14:40:44.239Z,54.00
2017-10-17T14:43:10.809Z,55.10
2017-10-17T14:45:37.228Z,56.10
2017-10-17T14:48:03.700Z,56.00
2017-10-17T14:50:30.155Z,57.00
2017-10-17T14:52:56.585Z,56.90
2017-10-17T14:55:23.039Z,56.20
2017-10-17T14:57:49.484Z,56.20
2017-10-17T15:00:15.921Z,57.70
2017-10-17T15:02:43.095Z,56.50
2017-10-17T15:05:10.253Z,56.70
2017-10-17T15:07:37.440Z,56.90
2017-10-17T15:10:05.396Z,57.10
2017-10-17T15:12:31.857Z,57.10
2017-10-17T15:14:58.342Z,57.10
2017-10-17T15:17:25.494Z,58.50
2017-10-17T15:19:52.658Z,59.40
2017-10-17T15:22:19.060Z,59.40
2017-10-17T15:24:46.257Z,62.60
2017-10-17T15:27:12.647Z,62.30
2017-10-17T15:29:39.105Z,63.30
2017-10-17T15:32:05.575Z,64.80
2017-10-17T15:34:31.994Z,66.00
2017-10-17T15:36:58.440Z,67.30
2017-10-17T15:39:24.841Z,67.60
2017-10-17T15:41:51.260Z,68.30
2017-10-17T15:44:18.427Z,70.00
2017-10-17T15:46:44.833Z,70.00
2017-10-17T15:49:11.292Z,70.50
2017-10-17T15:51:37.715Z,70.80
2017-10-17T15:54:04.165Z,71.50
2017-10-17T15:56:30.641Z,72.20
2017-10-17T15:58:57.142Z,72.10
2017-10-17T16:01:23.572Z,73.90
2017-10-17T16:03:49.977Z,73.50
2017-10-17T16:06:17.164Z,73.60
2017-10-17T16:08:43.584Z,73.50
2017-10-17T16:11:10.044Z,73.60
2017-10-17T16:13:36.493Z,74.50
2017-10-17T16:16:02.928Z,75.00
2017-10-17T16:18:29.369Z,75.80
2017-10-17T16:20:55.772Z,75.70
2017-10-17T16:23:22.239Z,76.40
2017-10-17T16:25:48.635Z,76.40
2017-10-17T16:28:15.065Z,76.80
2017-10-17T16:30:41.504Z,77.30
2017-10-17T16:33:07.954Z,77.40
2017-10-17T16:35:34.402Z,77.60
2017-10-17T16:38:00.866Z,77.90
2017-10-17T16:40:27.293Z,78.20
2017-10-17T16:42:54.477Z,78.90
2017-10-17T16:45:21.255Z,78.90
2017-10-17T16:47:47.767Z,78.50
2017-10-17T16:50:14.204Z,78.60
2017-10-17T16:52:41.379Z,79.10
2017-10-17T16:55:08.578Z,79.70
2017-10-17T16:57:35.061Z,79.70
2017-10-17T17:00:01.533Z,79.80
2017-10-17T17:02:27.940Z,79.40
2017-10-17T17:04:55.123Z,80.30
2017-10-17T17:07:21.517Z,80.00
2017-10-17T17:09:47.969Z,80.20
2017-10-17T17:12:15.131Z,80.40
2017-10-17T17:14:41.557Z,80.40
2017-10-17T17:17:08.752Z,81.20
2017-10-17T17:19:35.171Z,81.90
2017-10-17T17:22:01.713Z,81.60
2017-10-17T17:24:28.169Z,81.60
2017-10-17T17:26:54.664Z,81.60
2017-10-17T17:29:21.165Z,82.40
2017-10-17T17:31:48.294Z,82.50
2017-10-17T17:34:14.720Z,82.50
2017-10-17T17:36:41.132Z,82.50
2017-10-17T17:39:07.571Z,82.60
2017-10-17T17:41:34.748Z,83.00
2017-10-17T17:44:01.213Z,83.00
2017-10-17T17:46:27.657Z,83.20
2017-10-17T17:48:54.182Z,83.40
2017-10-17T17:51:21.356Z,83.80
2017-10-17T17:53:47.794Z,84.10
2017-10-17T17:56:14.244Z,83.90
2017-10-17T17:58:40.678Z,84.30
2017-10-17T18:01:07.149Z,84.50
2017-10-17T18:03:34.296Z,84.70
2017-10-17T18:06:00.761Z,84.70
2017-10-17T18:08:27.147Z,84.40
2017-10-17T18:10:53.541Z,84.60
2017-10-17T18:13:19.976Z,84.80
2017-10-17T18:15:46.408Z,84.80
2017-10-17T18:18:12.792Z,85.10
2017-10-17T18:20:39.991Z,84.40
2017-10-17T18:23:06.424Z,85.10
2017-10-17T18:25:32.852Z,85.60
2017-10-17T18:27:59.251Z,85.80
2017-10-17T18:30:26.417Z,86.10
2017-10-17T18:32:52.888Z,86.10
2017-10-17T18:35:19.308Z,86.40
2017-10-17T18:37:45.753Z,86.70
2017-10-17T18:40:12.147Z,86.40
2017-10-17T18:42:38.584Z,86.40
2017-10-17T18:45:05.024Z,86.10
2017-10-17T18:47:32.304Z,86.10
2017-10-17T18:49:58.700Z,86.30
2017-10-17T18:52:25.125Z,86.30
2017-10-17T18:54:52.287Z,86.70
2017-10-17T18:57:18.716Z,86.60
2017-10-17T18:59:45.140Z,86.60
2017-10-17T19:02:12.321Z,86.70
2017-10-17T19:04:39.503Z,86.80
2017-10-17T19:07:05.941Z,86.80
2017-10-17T19:09:32.324Z,86.60
2017-10-17T19:11:58.703Z,86.70
2017-10-17T19:14:25.131Z,86.80
2017-10-17T19:16:51.533Z,86.80
2017-10-17T19:19:17.953Z,87.10
2017-10-17T19:21:44.353Z,87.20
2017-10-17T19:24:11.548Z,88.00
2017-10-17T19:26:37.967Z,87.10
2017-10-17T19:29:04.359Z,87.10
2017-10-17T19:31:30.812Z,86.90
2017-10-17T19:33:57.223Z,87.10
2017-10-17T19:36:23.659Z,87.00
2017-10-17T19:38:50.864Z,86.90
2017-10-17T19:41:17.311Z,86.90
2017-10-17T19:43:43.764Z,86.90
2017-10-17T19:46:10.199Z,87.00
2017-10-17T19:48:36.629Z,87.70
2017-10-17T19:51:03.080Z,87.50
2017-10-17T19:53:29.504Z,87.90
2017-10-17T19:55:55.937Z,88.00
2017-10-17T19:58:22.401Z,87.90
2017-10-17T20:00:48.844Z,87.60
2017-10-17T20:03:15.264Z,88.20
2017-10-17T20:05:42.453Z,88.20
2017-10-17T20:08:08.989Z,88.20
2017-10-17T20:10:35.461Z,88.90
2017-10-17T20:13:01.925Z,89.00
2017-10-17T20:15:28.412Z,89.40
2017-10-17T20:17:54.824Z,88.80
2017-10-17T20:20:21.281Z,88.90
2017-10-17T20:22:47.777Z,88.70
2017-10-17T20:25:14.258Z,88.60
2017-10-17T20:27:40.707Z,88.50
2017-10-17T20:30:07.921Z,88.20
2017-10-17T20:32:34.439Z,88.00
2017-10-17T20:35:01.744Z,88.10
2017-10-17T20:37:28.972Z,87.90
2017-10-17T20:39:55.451Z,87.90
2017-10-17T20:42:21.915Z,88.10
2017-10-17T20:44:48.412Z,88.60
2017-10-17T20:47:15.616Z,88.80
2017-10-17T20:49:42.035Z,88.80
2017-10-17T20:52:08.497Z,88.40
2017-10-17T20:54:34.952Z,88.30
2017-10-17T20:57:02.163Z,88.00
2017-10-17T20:59:28.568Z,88.00
2017-10-17T21:01:54.997Z,88.00
2017-10-17T21:04:21.459Z,88.20
2017-10-17T21:06:47.881Z,88.30
2017-10-17T21:09:14.344Z,89.10
2017-10-17T21:11:40.785Z,88.50
2017-10-17T21:14:07.240Z,88.80
2017-10-17T21:16:34.368Z,88.60
2017-10-17T21:19:00.763Z,88.60
2017-10-17T21:21:27.199Z,88.40
2017-10-17T21:23:53.600Z,88.80
2017-10-17T21:26:20.079Z,88.80
2017-10-17T21:28:46.488Z,88.50
2017-10-17T21:31:12.939Z,88.50
2017-10-17T21:33:39.408Z,88.50
2017-10-17T21:36:05.825Z,88.40
2017-10-17T21:38:32.260Z,88.30
2017-10-17T21:40:58.708Z,88.00
2017-10-17T21:43:25.885Z,88.20
2017-10-17T21:45:52.324Z,88.10
2017-10-17T21:48:18.743Z,88.20
2017-10-17T21:50:45.869Z,88.40
2017-10-17T21:53:12.256Z,88.40
2017-10-17T21:55:38.702Z,88.60
2017-10-17T21:58:05.093Z,89.20
2017-10-17T22:00:44.507Z,88.40
2017-10-17T22:03:10.917Z,88.30
2017-10-17T22:05:37.343Z,88.70
2017-10-17T22:08:03.828Z,88.50
2017-10-17T22:10:30.983Z,88.30
2017-10-17T22:12:57.384Z,88.40
2017-10-17T22:15:23.838Z,88.40
2017-10-17T22:17:51.020Z,87.60
2017-10-17T22:20:17.417Z,87.60
2017-10-17T22:22:44.576Z,87.80
2017-10-17T22:25:11.827Z,87.80
2017-10-17T22:27:38.947Z,88.00
2017-10-17T22:30:05.340Z,88.00
2017-10-17T22:32:31.822Z,87.80
2017-10-17T22:34:58.281Z,87.40
2017-10-17T22:37:25.455Z,87.90
2017-10-17T22:39:51.873Z,87.80
2017-10-17T22:42:18.272Z,88.20
2017-10-17T22:44:44.737Z,88.50
2017-10-17T22:47:11.132Z,88.70
2017-10-17T22:49:37.552Z,88.50
2017-10-17T22:52:03.985Z,88.40
2017-10-17T22:54:31.184Z,88.50
2017-10-17T22:56:57.604Z,88.50
2017-10-17T22:59:24.787Z,88.40
2017-10-17T23:01:51.205Z,88.40
2017-10-17T23:04:17.629Z,88.40
2017-10-17T23:06:44.109Z,88.30
2017-10-17T23:09:10.520Z,87.90
2017-10-17T23:11:36.936Z,88.10
2017-10-17T23:14:03.349Z,88.00
2017-10-17T23:16:29.816Z,88.00
2017-10-17T23:19:08.504Z,87.60
2017-10-17T23:21:35.760Z,87.80
2017-10-17T23:24:02.949Z,87.60
2017-10-17T23:26:30.132Z,87.50
2017-10-17T23:28:56.522Z,87.50
2017-10-17T23:31:22.921Z,87.70
2017-10-17T23:33:50.097Z,87.40
2017-10-17T23:36:16.500Z,87.30
2017-10-17T23:38:43.628Z,88.20
2017-10-17T23:41:10.036Z,88.10
2017-10-17T23:43:36.424Z,87.90
2017-10-17T23:46:03.616Z,87.30
2017-10-17T23:48:30.022Z,87.20
2017-10-17T23:50:56.409Z,87.30
2017-10-17T23:53:22.837Z,87.00
2017-10-17T23:55:49.235Z,87.20
2017-10-17T23:58:15.633Z,87.20
